sensor_id;sensor_type;location;lat;lon;timestamp;P1;durP1;ratioP1;P2;durP2;ratioP2
2618;SDS011;1319;52.346;13.096;2023-06-26T00:01:29;19.17;;;14.00;;
2618;SDS011;1319;52.346;13.096;2023-06-26T00:03:56;17.10;;;14.07;;
2618;SDS011;1319;52.346;13.096;2023-06-26T00:06:21;16.50;;;13.87;;
2618;SDS011;1319;52.346;13.096;2023-06-26T00:08:49;24.83;;;15.53;;
2618;SDS011;1319;52.346;13.096;2023-06-26T00:11:14;26.77;;;15.73;;
2618;SDS011;1319;52.346;13.096;2023-06-26T00:13:39;18.53;;;14.00;;
2618;SDS011;1319;52.346;13.096;2023-06-26T00:16:05;19.07;;;14.90;;
2618;SDS011;1319;52.346;13.096;2023-06-26T00:18:30;18.47;;;14.43;;
2618;SDS011;1319;52.346;13.096;2023-06-26T00:20:55;17.53;;;14.53;;
2618;SDS011;1319;52.346;13.096;2023-06-26T00:23:20;21.37;;;15.40;;
2618;SDS011;1319;52.346;13.096;2023-06-26T00:25:46;16.70;;;14.83;;
2618;SDS011;1319;52.346;13.096;2023-06-26T00:28:11;22.00;;;15.23;;
2618;SDS011;1319;52.346;13.096;2023-06-26T00:30:36;16.27;;;14.17;;
2618;SDS011;1319;52.346;13.096;2023-06-26T00:33:01;16.97;;;15.17;;
2618;SDS011;1319;52.346;13.096;2023-06-26T00:35:27;23.13;;;15.90;;
2618;SDS011;1319;52.346;13.096;2023-06-26T00:37:52;19.53;;;15.40;;
2618;SDS011;1319;52.346;13.096;2023-06-26T00:40:17;16.97;;;14.70;;
2618;SDS011;1319;52.346;13.096;2023-06-26T00:42:42;20.40;;;15.00;;
2618;SDS011;1319;52.346;13.096;2023-06-26T00:45:08;18.10;;;14.73;;
2618;SDS011;1319;52.346;13.096;2023-06-26T00:47:33;21.77;;;15.97;;
2618;SDS011;1319;52.346;13.096;2023-06-26T00:49:58;19.47;;;15.33;;
2618;SDS011;1319;52.346;13.096;2023-06-26T00:52:23;21.37;;;15.70;;
2618;SDS011;1319;52.346;13.096;2023-06-26T00:54:49;21.50;;;15.87;;
2618;SDS011;1319;52.346;13.096;2023-06-26T00:57:16;19.97;;;15.57;;
2618;SDS011;1319;52.346;13.096;2023-06-26T00:59:41;20.93;;;16.50;;
2618;SDS011;1319;52.346;13.096;2023-06-26T01:02:06;20.33;;;16.00;;
2618;SDS011;1319;52.346;13.096;2023-06-26T01:04:32;18.90;;;16.03;;
2618;SDS011;1319;52.346;13.096;2023-06-26T01:06:57;18.30;;;15.80;;
2618;SDS011;1319;52.346;13.096;2023-06-26T01:09:24;21.13;;;17.00;;
2618;SDS011;1319;52.346;13.096;2023-06-26T01:11:49;21.67;;;16.63;;
2618;SDS011;1319;52.346;13.096;2023-06-26T01:14:15;20.70;;;16.03;;
2618;SDS011;1319;52.346;13.096;2023-06-26T01:16:40;20.07;;;15.93;;
2618;SDS011;1319;52.346;13.096;2023-06-26T01:19:09;20.50;;;15.83;;
2618;SDS011;1319;52.346;13.096;2023-06-26T01:21:35;19.73;;;16.83;;
2618;SDS011;1319;52.346;13.096;2023-06-26T01:24:22;19.87;;;16.27;;
2618;SDS011;1319;52.346;13.096;2023-06-26T01:26:52;22.50;;;16.27;;
2618;SDS011;1319;52.346;13.096;2023-06-26T01:29:18;17.33;;;15.20;;
2618;SDS011;1319;52.346;13.096;2023-06-26T01:31:43;25.97;;;15.23;;
2618;SDS011;1319;52.346;13.096;2023-06-26T01:34:11;19.63;;;16.10;;
2618;SDS011;1319;52.346;13.096;2023-06-26T01:36:36;19.73;;;16.07;;
2618;SDS011;1319;52.346;13.096;2023-06-26T01:39:02;17.10;;;13.47;;
2618;SDS011;1319;52.346;13.096;2023-06-26T01:41:27;15.40;;;12.87;;
2618;SDS011;1319;52.346;13.096;2023-06-26T01:44:01;15.13;;;12.10;;
2618;SDS011;1319;52.346;13.096;2023-06-26T01:46:42;15.27;;;13.03;;
2618;SDS011;1319;52.346;13.096;2023-06-26T01:51:38;14.40;;;12.57;;
2618;SDS011;1319;52.346;13.096;2023-06-26T01:54:04;16.87;;;13.87;;
2618;SDS011;1319;52.346;13.096;2023-06-26T01:56:33;16.90;;;13.63;;
2618;SDS011;1319;52.346;13.096;2023-06-26T01:58:58;17.70;;;14.70;;
2618;SDS011;1319;52.346;13.096;2023-06-26T02:01:24;19.50;;;15.47;;
2618;SDS011;1319;52.346;13.096;2023-06-26T02:03:50;16.97;;;15.17;;
2618;SDS011;1319;52.346;13.096;2023-06-26T02:06:15;20.40;;;15.10;;
2618;SDS011;1319;52.346;13.096;2023-06-26T02:08:40;18.40;;;15.40;;
2618;SDS011;1319;52.346;13.096;2023-06-26T02:11:05;17.70;;;15.73;;
2618;SDS011;1319;52.346;13.096;2023-06-26T02:13:31;24.23;;;16.70;;
2618;SDS011;1319;52.346;13.096;2023-06-26T02:15:56;20.43;;;16.57;;
2618;SDS011;1319;52.346;13.096;2023-06-26T02:18:22;19.00;;;16.17;;
2618;SDS011;1319;52.346;13.096;2023-06-26T02:20:48;19.37;;;16.20;;
2618;SDS011;1319;52.346;13.096;2023-06-26T02:23:13;21.67;;;16.43;;
2618;SDS011;1319;52.346;13.096;2023-06-26T02:25:38;20.43;;;16.70;;
2618;SDS011;1319;52.346;13.096;2023-06-26T02:28:04;27.77;;;16.77;;
2618;SDS011;1319;52.346;13.096;2023-06-26T02:30:29;19.03;;;16.90;;
2618;SDS011;1319;52.346;13.096;2023-06-26T02:32:54;19.20;;;16.77;;
2618;SDS011;1319;52.346;13.096;2023-06-26T02:35:19;22.27;;;16.77;;
2618;SDS011;1319;52.346;13.096;2023-06-26T02:37:44;17.47;;;15.63;;
2618;SDS011;1319;52.346;13.096;2023-06-26T02:40:10;16.87;;;15.10;;
2618;SDS011;1319;52.346;13.096;2023-06-26T02:42:35;18.83;;;15.60;;
2618;SDS011;1319;52.346;13.096;2023-06-26T02:45:00;17.00;;;15.13;;
2618;SDS011;1319;52.346;13.096;2023-06-26T02:47:25;17.40;;;14.83;;
2618;SDS011;1319;52.346;13.096;2023-06-26T02:49:51;18.00;;;14.33;;
2618;SDS011;1319;52.346;13.096;2023-06-26T02:52:16;17.50;;;14.43;;
2618;SDS011;1319;52.346;13.096;2023-06-26T02:54:41;19.53;;;15.73;;
2618;SDS011;1319;52.346;13.096;2023-06-26T02:57:06;20.50;;;15.53;;
2618;SDS011;1319;52.346;13.096;2023-06-26T02:59:32;20.73;;;15.40;;
2618;SDS011;1319;52.346;13.096;2023-06-26T03:01:57;18.00;;;15.00;;
2618;SDS011;1319;52.346;13.096;2023-06-26T03:04:22;19.13;;;15.47;;
2618;SDS011;1319;52.346;13.096;2023-06-26T03:06:48;20.77;;;16.37;;
2618;SDS011;1319;52.346;13.096;2023-06-26T03:09:13;23.10;;;15.27;;
2618;SDS011;1319;52.346;13.096;2023-06-26T03:11:38;18.93;;;15.10;;
2618;SDS011;1319;52.346;13.096;2023-06-26T03:14:03;19.37;;;15.20;;
2618;SDS011;1319;52.346;13.096;2023-06-26T03:16:29;18.00;;;15.67;;
2618;SDS011;1319;52.346;13.096;2023-06-26T03:18:54;17.23;;;15.43;;
2618;SDS011;1319;52.346;13.096;2023-06-26T03:21:19;22.23;;;15.80;;
2618;SDS011;1319;52.346;13.096;2023-06-26T03:23:44;17.23;;;14.73;;
2618;SDS011;1319;52.346;13.096;2023-06-26T03:26:09;17.00;;;14.97;;
2618;SDS011;1319;52.346;13.096;2023-06-26T03:28:35;18.60;;;14.80;;
2618;SDS011;1319;52.346;13.096;2023-06-26T03:31:00;18.47;;;15.27;;
2618;SDS011;1319;52.346;13.096;2023-06-26T03:33:25;19.13;;;15.77;;
2618;SDS011;1319;52.346;13.096;2023-06-26T03:35:50;16.73;;;15.03;;
2618;SDS011;1319;52.346;13.096;2023-06-26T03:38:16;17.27;;;15.40;;
2618;SDS011;1319;52.346;13.096;2023-06-26T03:40:41;19.83;;;14.67;;
2618;SDS011;1319;52.346;13.096;2023-06-26T03:43:06;19.17;;;15.87;;
2618;SDS011;1319;52.346;13.096;2023-06-26T03:45:31;17.63;;;15.83;;
2618;SDS011;1319;52.346;13.096;2023-06-26T03:47:57;17.53;;;15.57;;
2618;SDS011;1319;52.346;13.096;2023-06-26T03:50:22;21.43;;;15.83;;
2618;SDS011;1319;52.346;13.096;2023-06-26T03:52:47;26.17;;;17.13;;
2618;SDS011;1319;52.346;13.096;2023-06-26T03:55:12;19.93;;;17.50;;
2618;SDS011;1319;52.346;13.096;2023-06-26T03:57:37;23.13;;;17.50;;
2618;SDS011;1319;52.346;13.096;2023-06-26T04:00:03;20.83;;;16.23;;
2618;SDS011;1319;52.346;13.096;2023-06-26T04:02:33;18.33;;;15.80;;
2618;SDS011;1319;52.346;13.096;2023-06-26T04:04:58;19.83;;;16.50;;
2618;SDS011;1319;52.346;13.096;2023-06-26T04:07:25;18.80;;;16.37;;
2618;SDS011;1319;52.346;13.096;2023-06-26T04:09:50;19.77;;;16.33;;
2618;SDS011;1319;52.346;13.096;2023-06-26T04:12:15;20.50;;;17.20;;
2618;SDS011;1319;52.346;13.096;2023-06-26T04:14:41;22.13;;;17.07;;
2618;SDS011;1319;52.346;13.096;2023-06-26T04:17:06;19.57;;;16.60;;
2618;SDS011;1319;52.346;13.096;2023-06-26T04:19:31;17.77;;;15.77;;
2618;SDS011;1319;52.346;13.096;2023-06-26T04:21:56;19.17;;;17.17;;
2618;SDS011;1319;52.346;13.096;2023-06-26T04:24:22;23.73;;;18.30;;
2618;SDS011;1319;52.346;13.096;2023-06-26T04:26:47;26.27;;;17.77;;
2618;SDS011;1319;52.346;13.096;2023-06-26T04:29:12;26.40;;;19.60;;
2618;SDS011;1319;52.346;13.096;2023-06-26T04:31:38;22.93;;;19.70;;
2618;SDS011;1319;52.346;13.096;2023-06-26T04:34:04;25.03;;;18.93;;
2618;SDS011;1319;52.346;13.096;2023-06-26T04:36:29;26.53;;;19.83;;
2618;SDS011;1319;52.346;13.096;2023-06-26T04:38:54;24.17;;;20.73;;
2618;SDS011;1319;52.346;13.096;2023-06-26T04:41:20;23.10;;;20.17;;
2618;SDS011;1319;52.346;13.096;2023-06-26T04:43:45;23.67;;;20.43;;
2618;SDS011;1319;52.346;13.096;2023-06-26T04:46:10;26.90;;;19.67;;
2618;SDS011;1319;52.346;13.096;2023-06-26T04:48:36;24.60;;;19.57;;
2618;SDS011;1319;52.346;13.096;2023-06-26T04:51:01;24.03;;;20.27;;
2618;SDS011;1319;52.346;13.096;2023-06-26T04:53:26;23.40;;;19.87;;
2618;SDS011;1319;52.346;13.096;2023-06-26T04:55:52;23.10;;;20.40;;
2618;SDS011;1319;52.346;13.096;2023-06-26T04:58:17;22.57;;;19.60;;
2618;SDS011;1319;52.346;13.096;2023-06-26T05:00:43;24.27;;;19.40;;
2618;SDS011;1319;52.346;13.096;2023-06-26T05:03:11;23.43;;;20.27;;
2618;SDS011;1319;52.346;13.096;2023-06-26T05:05:36;26.57;;;21.20;;
2618;SDS011;1319;52.346;13.096;2023-06-26T05:08:13;27.87;;;21.30;;
2618;SDS011;1319;52.346;13.096;2023-06-26T05:10:38;24.73;;;20.67;;
2618;SDS011;1319;52.346;13.096;2023-06-26T05:13:03;23.77;;;20.47;;
2618;SDS011;1319;52.346;13.096;2023-06-26T05:15:28;24.47;;;20.23;;
2618;SDS011;1319;52.346;13.096;2023-06-26T05:17:54;29.33;;;20.13;;
2618;SDS011;1319;52.346;13.096;2023-06-26T05:20:19;28.40;;;20.30;;
2618;SDS011;1319;52.346;13.096;2023-06-26T05:22:44;25.97;;;19.83;;
2618;SDS011;1319;52.346;13.096;2023-06-26T05:25:09;24.63;;;18.27;;
2618;SDS011;1319;52.346;13.096;2023-06-26T05:27:36;22.73;;;18.77;;
2618;SDS011;1319;52.346;13.096;2023-06-26T05:30:02;24.60;;;17.93;;
2618;SDS011;1319;52.346;13.096;2023-06-26T05:32:27;21.60;;;18.00;;
2618;SDS011;1319;52.346;13.096;2023-06-26T05:34:53;22.23;;;16.60;;
2618;SDS011;1319;52.346;13.096;2023-06-26T05:37:20;19.87;;;16.30;;
2618;SDS011;1319;52.346;13.096;2023-06-26T05:39:45;18.50;;;16.60;;
2618;SDS011;1319;52.346;13.096;2023-06-26T05:42:11;19.17;;;15.90;;
2618;SDS011;1319;52.346;13.096;2023-06-26T05:44:36;22.43;;;16.43;;
2618;SDS011;1319;52.346;13.096;2023-06-26T05:47:02;21.80;;;16.57;;
2618;SDS011;1319;52.346;13.096;2023-06-26T05:49:27;17.53;;;14.80;;
2618;SDS011;1319;52.346;13.096;2023-06-26T05:51:52;23.80;;;14.57;;
2618;SDS011;1319;52.346;13.096;2023-06-26T05:54:17;17.00;;;14.30;;
2618;SDS011;1319;52.346;13.096;2023-06-26T05:56:43;17.90;;;14.07;;
2618;SDS011;1319;52.346;13.096;2023-06-26T05:59:08;21.63;;;13.50;;
2618;SDS011;1319;52.346;13.096;2023-06-26T06:01:34;16.37;;;13.93;;
2618;SDS011;1319;52.346;13.096;2023-06-26T06:04:00;15.93;;;13.20;;
2618;SDS011;1319;52.346;13.096;2023-06-26T06:06:26;18.47;;;13.50;;
2618;SDS011;1319;52.346;13.096;2023-06-26T06:08:51;15.17;;;13.57;;
2618;SDS011;1319;52.346;13.096;2023-06-26T06:11:16;17.43;;;13.13;;
2618;SDS011;1319;52.346;13.096;2023-06-26T06:13:41;15.57;;;13.40;;
2618;SDS011;1319;52.346;13.096;2023-06-26T06:16:07;14.77;;;12.90;;
2618;SDS011;1319;52.346;13.096;2023-06-26T06:18:32;15.47;;;12.67;;
2618;SDS011;1319;52.346;13.096;2023-06-26T06:20:58;17.00;;;13.17;;
2618;SDS011;1319;52.346;13.096;2023-06-26T06:23:23;18.63;;;12.97;;
2618;SDS011;1319;52.346;13.096;2023-06-26T06:25:48;17.97;;;12.37;;
2618;SDS011;1319;52.346;13.096;2023-06-26T06:28:13;14.57;;;12.53;;
2618;SDS011;1319;52.346;13.096;2023-06-26T06:30:41;13.87;;;12.47;;
2618;SDS011;1319;52.346;13.096;2023-06-26T06:33:06;16.10;;;11.55;;
2618;SDS011;1319;52.346;13.096;2023-06-26T06:35:31;12.83;;;11.27;;
2618;SDS011;1319;52.346;13.096;2023-06-26T06:37:56;14.05;;;10.98;;
2618;SDS011;1319;52.346;13.096;2023-06-26T06:40:22;15.75;;;11.27;;
2618;SDS011;1319;52.346;13.096;2023-06-26T06:42:47;12.55;;;11.25;;
2618;SDS011;1319;52.346;13.096;2023-06-26T06:45:13;16.67;;;11.53;;
2618;SDS011;1319;52.346;13.096;2023-06-26T06:47:38;15.98;;;11.05;;
2618;SDS011;1319;52.346;13.096;2023-06-26T06:50:03;14.38;;;10.68;;
2618;SDS011;1319;52.346;13.096;2023-06-26T06:52:39;13.38;;;9.90;;
2618;SDS011;1319;52.346;13.096;2023-06-26T06:55:05;15.93;;;10.25;;
2618;SDS011;1319;52.346;13.096;2023-06-26T06:57:33;12.35;;;9.52;;
2618;SDS011;1319;52.346;13.096;2023-06-26T07:00:01;11.88;;;10.65;;
2618;SDS011;1319;52.346;13.096;2023-06-26T07:02:26;11.60;;;9.30;;
2618;SDS011;1319;52.346;13.096;2023-06-26T07:04:52;11.88;;;9.18;;
2618;SDS011;1319;52.346;13.096;2023-06-26T07:07:18;11.23;;;9.52;;
2618;SDS011;1319;52.346;13.096;2023-06-26T07:09:43;10.68;;;9.68;;
2618;SDS011;1319;52.346;13.096;2023-06-26T07:12:09;10.70;;;8.65;;
2618;SDS011;1319;52.346;13.096;2023-06-26T07:14:34;10.75;;;9.45;;
2618;SDS011;1319;52.346;13.096;2023-06-26T07:16:59;10.75;;;9.10;;
2618;SDS011;1319;52.346;13.096;2023-06-26T07:19:24;11.48;;;8.63;;
2618;SDS011;1319;52.346;13.096;2023-06-26T07:21:50;10.65;;;8.85;;
2618;SDS011;1319;52.346;13.096;2023-06-26T07:24:15;12.60;;;9.35;;
2618;SDS011;1319;52.346;13.096;2023-06-26T07:26:40;9.05;;;8.15;;
2618;SDS011;1319;52.346;13.096;2023-06-26T07:29:06;9.35;;;8.45;;
2618;SDS011;1319;52.346;13.096;2023-06-26T07:31:31;8.65;;;7.75;;
2618;SDS011;1319;52.346;13.096;2023-06-26T07:33:57;10.80;;;8.63;;
2618;SDS011;1319;52.346;13.096;2023-06-26T07:36:22;12.10;;;7.72;;
2618;SDS011;1319;52.346;13.096;2023-06-26T07:38:47;9.63;;;7.30;;
2618;SDS011;1319;52.346;13.096;2023-06-26T07:41:13;10.63;;;6.93;;
2618;SDS011;1319;52.346;13.096;2023-06-26T07:43:38;10.65;;;7.60;;
2618;SDS011;1319;52.346;13.096;2023-06-26T07:46:03;8.45;;;6.90;;
2618;SDS011;1319;52.346;13.096;2023-06-26T07:48:28;10.57;;;7.22;;
2618;SDS011;1319;52.346;13.096;2023-06-26T07:50:54;8.25;;;6.90;;
2618;SDS011;1319;52.346;13.096;2023-06-26T07:53:19;9.20;;;5.78;;
2618;SDS011;1319;52.346;13.096;2023-06-26T07:55:44;7.43;;;6.22;;
2618;SDS011;1319;52.346;13.096;2023-06-26T07:58:09;7.78;;;6.97;;
2618;SDS011;1319;52.346;13.096;2023-06-26T08:00:35;7.45;;;6.25;;
2618;SDS011;1319;52.346;13.096;2023-06-26T08:03:00;7.75;;;6.20;;
2618;SDS011;1319;52.346;13.096;2023-06-26T08:05:25;6.60;;;5.43;;
2618;SDS011;1319;52.346;13.096;2023-06-26T08:07:50;6.70;;;6.00;;
2618;SDS011;1319;52.346;13.096;2023-06-26T08:10:16;6.53;;;5.85;;
2618;SDS011;1319;52.346;13.096;2023-06-26T08:12:41;7.85;;;6.00;;
2618;SDS011;1319;52.346;13.096;2023-06-26T08:15:08;6.03;;;5.50;;
2618;SDS011;1319;52.346;13.096;2023-06-26T08:17:34;6.10;;;5.50;;
2618;SDS011;1319;52.346;13.096;2023-06-26T08:19:59;7.53;;;5.80;;
2618;SDS011;1319;52.346;13.096;2023-06-26T08:22:25;5.78;;;5.28;;
2618;SDS011;1319;52.346;13.096;2023-06-26T08:24:50;5.88;;;5.30;;
2618;SDS011;1319;52.346;13.096;2023-06-26T08:27:15;7.53;;;5.20;;
2618;SDS011;1319;52.346;13.096;2023-06-26T08:29:40;6.40;;;5.53;;
2618;SDS011;1319;52.346;13.096;2023-06-26T08:32:06;7.93;;;5.38;;
2618;SDS011;1319;52.346;13.096;2023-06-26T08:34:31;9.13;;;5.28;;
2618;SDS011;1319;52.346;13.096;2023-06-26T08:36:56;5.88;;;5.38;;
2618;SDS011;1319;52.346;13.096;2023-06-26T08:39:21;5.88;;;4.68;;
2618;SDS011;1319;52.346;13.096;2023-06-26T08:41:47;4.68;;;4.38;;
2618;SDS011;1319;52.346;13.096;2023-06-26T08:44:12;6.60;;;4.90;;
2618;SDS011;1319;52.346;13.096;2023-06-26T08:46:37;5.38;;;4.32;;
2618;SDS011;1319;52.346;13.096;2023-06-26T08:49:18;4.70;;;4.25;;
2618;SDS011;1319;52.346;13.096;2023-06-26T08:51:45;4.57;;;4.20;;
2618;SDS011;1319;52.346;13.096;2023-06-26T08:54:11;5.50;;;4.22;;
2618;SDS011;1319;52.346;13.096;2023-06-26T08:56:41;5.22;;;4.40;;
2618;SDS011;1319;52.346;13.096;2023-06-26T08:59:08;4.22;;;3.90;;
2618;SDS011;1319;52.346;13.096;2023-06-26T09:01:35;7.15;;;4.60;;
2618;SDS011;1319;52.346;13.096;2023-06-26T09:04:00;5.75;;;4.35;;
2618;SDS011;1319;52.346;13.096;2023-06-26T09:06:25;4.75;;;4.35;;
2618;SDS011;1319;52.346;13.096;2023-06-26T09:08:51;8.25;;;4.78;;
2618;SDS011;1319;52.346;13.096;2023-06-26T09:11:16;5.15;;;4.50;;
2618;SDS011;1319;52.346;13.096;2023-06-26T09:13:42;5.70;;;4.38;;
2618;SDS011;1319;52.346;13.096;2023-06-26T09:16:08;8.57;;;4.43;;
2618;SDS011;1319;52.346;13.096;2023-06-26T09:18:33;7.22;;;4.50;;
2618;SDS011;1319;52.346;13.096;2023-06-26T09:20:59;5.03;;;4.53;;
2618;SDS011;1319;52.346;13.096;2023-06-26T09:23:24;4.30;;;3.90;;
2618;SDS011;1319;52.346;13.096;2023-06-26T09:25:50;3.97;;;3.70;;
2618;SDS011;1319;52.346;13.096;2023-06-26T09:28:16;5.57;;;4.20;;
2618;SDS011;1319;52.346;13.096;2023-06-26T09:30:41;4.10;;;3.80;;
2618;SDS011;1319;52.346;13.096;2023-06-26T09:33:16;8.70;;;4.90;;
2618;SDS011;1319;52.346;13.096;2023-06-26T09:35:43;5.43;;;4.18;;
2618;SDS011;1319;52.346;13.096;2023-06-26T09:38:08;4.25;;;3.95;;
2618;SDS011;1319;52.346;13.096;2023-06-26T09:40:33;6.35;;;4.00;;
2618;SDS011;1319;52.346;13.096;2023-06-26T09:43:06;4.15;;;3.85;;
2618;SDS011;1319;52.346;13.096;2023-06-26T09:45:32;4.60;;;4.03;;
2618;SDS011;1319;52.346;13.096;2023-06-26T09:48:01;6.63;;;4.10;;
2618;SDS011;1319;52.346;13.096;2023-06-26T09:50:28;4.82;;;4.20;;
2618;SDS011;1319;52.346;13.096;2023-06-26T09:52:53;4.85;;;4.45;;
2618;SDS011;1319;52.346;13.096;2023-06-26T09:55:19;5.20;;;4.70;;
2618;SDS011;1319;52.346;13.096;2023-06-26T09:57:45;8.55;;;4.30;;
2618;SDS011;1319;52.346;13.096;2023-06-26T10:00:11;6.43;;;4.20;;
2618;SDS011;1319;52.346;13.096;2023-06-26T10:02:37;5.20;;;4.70;;
2618;SDS011;1319;52.346;13.096;2023-06-26T10:05:02;4.53;;;4.10;;
2618;SDS011;1319;52.346;13.096;2023-06-26T10:07:28;4.30;;;4.00;;
2618;SDS011;1319;52.346;13.096;2023-06-26T10:09:53;4.35;;;4.05;;
2618;SDS011;1319;52.346;13.096;2023-06-26T10:12:26;7.70;;;4.22;;
2618;SDS011;1319;52.346;13.096;2023-06-26T10:14:51;5.55;;;3.85;;
2618;SDS011;1319;52.346;13.096;2023-06-26T10:17:19;5.40;;;4.22;;
2618;SDS011;1319;52.346;13.096;2023-06-26T10:19:45;3.88;;;3.63;;
2618;SDS011;1319;52.346;13.096;2023-06-26T10:22:12;4.53;;;3.92;;
2618;SDS011;1319;52.346;13.096;2023-06-26T10:24:39;4.68;;;4.20;;
2618;SDS011;1319;52.346;13.096;2023-06-26T10:27:13;7.00;;;4.43;;
2618;SDS011;1319;52.346;13.096;2023-06-26T10:29:39;4.63;;;4.10;;
2618;SDS011;1319;52.346;13.096;2023-06-26T10:32:05;5.40;;;3.80;;
2618;SDS011;1319;52.346;13.096;2023-06-26T10:34:31;7.28;;;4.10;;
2618;SDS011;1319;52.346;13.096;2023-06-26T10:37:00;5.15;;;4.15;;
2618;SDS011;1319;52.346;13.096;2023-06-26T10:39:26;4.43;;;4.00;;
2618;SDS011;1319;52.346;13.096;2023-06-26T10:41:51;5.13;;;4.53;;
2618;SDS011;1319;52.346;13.096;2023-06-26T10:44:19;5.32;;;4.50;;
2618;SDS011;1319;52.346;13.096;2023-06-26T10:46:49;4.70;;;4.30;;
2618;SDS011;1319;52.346;13.096;2023-06-26T10:49:15;4.80;;;4.40;;
2618;SDS011;1319;52.346;13.096;2023-06-26T10:51:50;4.72;;;4.35;;
2618;SDS011;1319;52.346;13.096;2023-06-26T10:54:19;4.72;;;4.32;;
2618;SDS011;1319;52.346;13.096;2023-06-26T10:56:48;4.97;;;4.10;;
2618;SDS011;1319;52.346;13.096;2023-06-26T10:59:20;6.07;;;4.43;;
2618;SDS011;1319;52.346;13.096;2023-06-26T11:01:46;4.50;;;4.20;;
2618;SDS011;1319;52.346;13.096;2023-06-26T11:04:12;4.55;;;4.15;;
2618;SDS011;1319;52.346;13.096;2023-06-26T11:06:40;4.60;;;4.20;;
2618;SDS011;1319;52.346;13.096;2023-06-26T11:14:34;7.22;;;4.60;;
2618;SDS011;1319;52.346;13.096;2023-06-26T11:17:02;5.60;;;5.05;;
2618;SDS011;1319;52.346;13.096;2023-06-26T11:19:27;6.20;;;4.70;;
2618;SDS011;1319;52.346;13.096;2023-06-26T11:22:01;4.72;;;4.43;;
2618;SDS011;1319;52.346;13.096;2023-06-26T11:24:26;5.10;;;4.70;;
2618;SDS011;1319;52.346;13.096;2023-06-26T11:26:52;5.20;;;4.78;;
2618;SDS011;1319;52.346;13.096;2023-06-26T11:29:17;6.88;;;5.10;;
2618;SDS011;1319;52.346;13.096;2023-06-26T11:31:42;5.30;;;4.90;;
2618;SDS011;1319;52.346;13.096;2023-06-26T11:34:08;5.47;;;4.97;;
2618;SDS011;1319;52.346;13.096;2023-06-26T11:36:35;6.30;;;5.40;;
2618;SDS011;1319;52.346;13.096;2023-06-26T11:39:02;5.43;;;4.93;;
2618;SDS011;1319;52.346;13.096;2023-06-26T11:41:36;8.80;;;5.20;;
2618;SDS011;1319;52.346;13.096;2023-06-26T11:44:02;5.68;;;5.07;;
2618;SDS011;1319;52.346;13.096;2023-06-26T11:46:28;8.27;;;5.32;;
2618;SDS011;1319;52.346;13.096;2023-06-26T11:48:53;5.43;;;4.93;;
2618;SDS011;1319;52.346;13.096;2023-06-26T11:51:19;6.68;;;4.95;;
2618;SDS011;1319;52.346;13.096;2023-06-26T11:53:45;6.07;;;5.40;;
2618;SDS011;1319;52.346;13.096;2023-06-26T11:56:11;5.85;;;5.13;;
2618;SDS011;1319;52.346;13.096;2023-06-26T11:58:53;6.20;;;5.60;;
2618;SDS011;1319;52.346;13.096;2023-06-26T12:01:18;7.28;;;5.47;;
2618;SDS011;1319;52.346;13.096;2023-06-26T12:03:44;5.95;;;5.20;;
2618;SDS011;1319;52.346;13.096;2023-06-26T12:06:09;5.75;;;5.25;;
2618;SDS011;1319;52.346;13.096;2023-06-26T12:08:34;6.00;;;5.40;;
2618;SDS011;1319;52.346;13.096;2023-06-26T12:11:00;8.65;;;5.68;;
2618;SDS011;1319;52.346;13.096;2023-06-26T12:13:25;5.80;;;5.15;;
2618;SDS011;1319;52.346;13.096;2023-06-26T12:15:50;6.15;;;5.55;;
2618;SDS011;1319;52.346;13.096;2023-06-26T12:18:16;7.88;;;5.32;;
2618;SDS011;1319;52.346;13.096;2023-06-26T12:20:41;5.47;;;5.07;;
2618;SDS011;1319;52.346;13.096;2023-06-26T12:23:13;5.82;;;5.32;;
2618;SDS011;1319;52.346;13.096;2023-06-26T12:25:38;6.80;;;5.43;;
2618;SDS011;1319;52.346;13.096;2023-06-26T12:28:03;9.23;;;5.50;;
2618;SDS011;1319;52.346;13.096;2023-06-26T12:30:39;6.20;;;5.60;;
2618;SDS011;1319;52.346;13.096;2023-06-26T12:33:12;5.65;;;5.15;;
2618;SDS011;1319;52.346;13.096;2023-06-26T12:35:37;6.20;;;5.70;;
2618;SDS011;1319;52.346;13.096;2023-06-26T12:38:05;5.78;;;5.28;;
2618;SDS011;1319;52.346;13.096;2023-06-26T12:40:30;6.22;;;5.72;;
2618;SDS011;1319;52.346;13.096;2023-06-26T12:42:56;5.57;;;5.07;;
2618;SDS011;1319;52.346;13.096;2023-06-26T12:45:21;9.03;;;5.67;;
2618;SDS011;1319;52.346;13.096;2023-06-26T12:47:46;7.70;;;5.35;;
2618;SDS011;1319;52.346;13.096;2023-06-26T12:50:11;7.13;;;5.63;;
2618;SDS011;1319;52.346;13.096;2023-06-26T12:52:37;6.43;;;5.82;;
2618;SDS011;1319;52.346;13.096;2023-06-26T12:55:02;6.78;;;5.78;;
2618;SDS011;1319;52.346;13.096;2023-06-26T12:57:28;8.75;;;6.10;;
2618;SDS011;1319;52.346;13.096;2023-06-26T12:59:53;6.55;;;5.80;;
2618;SDS011;1319;52.346;13.096;2023-06-26T13:02:18;6.20;;;5.60;;
2618;SDS011;1319;52.346;13.096;2023-06-26T13:04:43;10.90;;;5.28;;
2618;SDS011;1319;52.346;13.096;2023-06-26T13:07:09;6.68;;;5.50;;
2618;SDS011;1319;52.346;13.096;2023-06-26T13:09:35;8.13;;;5.45;;
2618;SDS011;1319;52.346;13.096;2023-06-26T13:12:01;6.05;;;5.47;;
2618;SDS011;1319;52.346;13.096;2023-06-26T13:14:28;6.30;;;5.70;;
2618;SDS011;1319;52.346;13.096;2023-06-26T13:16:53;6.20;;;5.22;;
2618;SDS011;1319;52.346;13.096;2023-06-26T13:19:19;8.95;;;5.55;;
2618;SDS011;1319;52.346;13.096;2023-06-26T13:21:44;6.75;;;5.20;;
2618;SDS011;1319;52.346;13.096;2023-06-26T13:24:10;9.48;;;5.65;;
2618;SDS011;1319;52.346;13.096;2023-06-26T13:26:35;6.00;;;5.50;;
2618;SDS011;1319;52.346;13.096;2023-06-26T13:29:00;5.65;;;5.20;;
2618;SDS011;1319;52.346;13.096;2023-06-26T13:31:26;6.22;;;5.20;;
2618;SDS011;1319;52.346;13.096;2023-06-26T13:33:51;6.15;;;5.47;;
2618;SDS011;1319;52.346;13.096;2023-06-26T13:36:19;7.53;;;5.10;;
2618;SDS011;1319;52.346;13.096;2023-06-26T13:38:44;8.30;;;5.35;;
2618;SDS011;1319;52.346;13.096;2023-06-26T13:41:10;6.45;;;5.20;;
2618;SDS011;1319;52.346;13.096;2023-06-26T13:43:35;6.55;;;5.50;;
2618;SDS011;1319;52.346;13.096;2023-06-26T13:46:01;5.78;;;5.15;;
2618;SDS011;1319;52.346;13.096;2023-06-26T13:48:26;6.82;;;5.35;;
2618;SDS011;1319;52.346;13.096;2023-06-26T13:50:51;7.60;;;5.72;;
2618;SDS011;1319;52.346;13.096;2023-06-26T13:53:17;6.95;;;5.53;;
2618;SDS011;1319;52.346;13.096;2023-06-26T13:55:42;7.10;;;5.40;;
2618;SDS011;1319;52.346;13.096;2023-06-26T13:58:08;6.00;;;5.50;;
2618;SDS011;1319;52.346;13.096;2023-06-26T14:00:34;6.50;;;5.90;;
2618;SDS011;1319;52.346;13.096;2023-06-26T14:03:00;8.70;;;5.80;;
2618;SDS011;1319;52.346;13.096;2023-06-26T14:05:25;11.32;;;5.63;;
2618;SDS011;1319;52.346;13.096;2023-06-26T14:07:50;7.25;;;5.50;;
2618;SDS011;1319;52.346;13.096;2023-06-26T14:10:15;12.48;;;5.93;;
2618;SDS011;1319;52.346;13.096;2023-06-26T14:12:41;12.60;;;5.57;;
2618;SDS011;1319;52.346;13.096;2023-06-26T14:15:06;13.48;;;5.63;;
2618;SDS011;1319;52.346;13.096;2023-06-26T14:17:31;11.07;;;5.90;;
2618;SDS011;1319;52.346;13.096;2023-06-26T14:19:57;8.23;;;5.15;;
2618;SDS011;1319;52.346;13.096;2023-06-26T14:22:22;9.10;;;6.22;;
2618;SDS011;1319;52.346;13.096;2023-06-26T14:24:48;11.30;;;7.05;;
2618;SDS011;1319;52.346;13.096;2023-06-26T14:27:13;7.93;;;6.30;;
2618;SDS011;1319;52.346;13.096;2023-06-26T14:29:38;10.00;;;6.63;;
2618;SDS011;1319;52.346;13.096;2023-06-26T14:32:04;8.05;;;6.25;;
2618;SDS011;1319;52.346;13.096;2023-06-26T14:34:29;6.45;;;5.65;;
2618;SDS011;1319;52.346;13.096;2023-06-26T14:36:54;10.43;;;6.50;;
2618;SDS011;1319;52.346;13.096;2023-06-26T14:39:20;11.32;;;6.18;;
2618;SDS011;1319;52.346;13.096;2023-06-26T14:41:45;10.70;;;6.70;;
2618;SDS011;1319;52.346;13.096;2023-06-26T14:44:10;7.88;;;6.25;;
2618;SDS011;1319;52.346;13.096;2023-06-26T14:46:36;7.03;;;5.88;;
2618;SDS011;1319;52.346;13.096;2023-06-26T14:49:01;9.73;;;5.82;;